Time;durP1;ratioP1;P1;durP2;ratioP2;P2;SDS_P1;SDS_P2;PMS_P1;PMS_P2;Temp;Humidity;BMP_temperature;BMP_pressure;BME280_temperature;BME280_humidity;BME280_pressure;Samples;Min_cycle;Max_cycle;Signal;HPM_P1;HPM_P2
2023/06/08 04:06:08;;;;;;;;;;;;;;;17.69;64.28;97844.88;4865542;28;19917;-57
2023/06/08 04:08:39;;;;;;;;;;;;;;;17.90;63.90;97852.00;5073604;28;19920;-56
2023/06/08 04:11:07;;;;;;;;;;;;;;;17.75;64.31;97843.44;5053866;28;19920;-57
2023/06/08 04:13:38;;;;;;;;;;;;;;;17.83;64.34;97852.63;5073553;28;19920;-56
2023/06/08 04:16:08;;;;;;;;;;;;;;;17.78;64.29;97856.44;5077008;28;19920;-58
2023/06/08 04:18:40;;;;;;;;;;;;;;;17.87;64.22;97859.00;5074427;28;19920;-60
2023/06/08 04:21:12;;;;;;;;;;;;;;;17.83;64.32;97865.56;5085009;28;19966;-56
2023/06/08 04:23:41;;;;;;;;;;;;;;;17.98;63.93;97865.53;5067468;28;19924;-58
2023/06/08 04:26:12;;;;;;;;;;;;;;;17.91;64.21;97870.09;5069984;28;20410;-56
2023/06/08 04:28:41;;;;;;;;;;;;;;;18.03;63.62;97867.97;5111829;28;19926;-57
2023/06/08 04:31:10;;;;;;;;;;;;;;;18.02;63.70;97862.84;5078527;28;19943;-57
2023/06/08 04:33:38;;;;;;;;;;;;;;;18.12;63.38;97865.03;5073221;28;19931;-56
2023/06/08 04:36:07;;;;;;;;;;;;;;;18.18;63.17;97860.03;5075572;28;19920;-57
2023/06/08 04:38:41;;;;;;;;;;;;;;;18.12;63.28;97859.53;5099408;28;19932;-56
2023/06/08 04:41:11;;;;;;;;;;;;;;;18.16;63.34;97863.13;5074883;28;20058;-56
2023/06/08 04:43:39;;;;;;;;;;;;;;;18.19;63.28;97872.63;5071246;28;19986;-58
2023/06/08 04:46:12;;;;;;;;;;;;;;;18.12;63.57;97865.03;5061920;28;19920;-57
2023/06/08 04:48:43;;;;;;;;;;;;;;;18.03;63.68;97867.97;5064533;28;19920;-57
2023/06/08 04:51:11;;;;;;;;;;;;;;;18.06;63.81;97869.22;5092373;28;19970;-57
2023/06/08 04:53:42;;;;;;;;;;;;;;;18.14;63.45;97865.44;5077157;28;19924;-56
2023/06/08 04:56:18;;;;;;;;;;;;;;;18.16;63.48;97868.63;5107114;28;19928;-56
2023/06/08 04:58:46;;;;;;;;;;;;;;;18.17;63.38;97866.69;5110226;28;19965;-56
2023/06/08 05:01:14;;;;;;;;;;;;;;;18.10;63.64;97878.31;5060126;28;19966;-60
2023/06/08 05:03:42;;;;;;;;;;;;;;;18.12;63.61;97876.03;5089022;28;20349;-56
2023/06/08 05:06:11;;;;;;;;;;;;;;;18.02;63.79;97871.09;5061433;28;20015;-57
2023/06/08 05:08:40;;;;;;;;;;;;;;;18.10;63.75;97872.03;5097267;28;20427;-57
2023/06/08 05:11:08;;;;;;;;;;;;;;;18.21;63.31;97881.28;5077562;28;20400;-56
2023/06/08 05:13:36;;;;;;;;;;;;;;;18.02;63.79;97874.66;5088075;28;19959;-58
2023/06/08 05:16:04;;;;;;;;;;;;;;;18.05;63.73;97881.34;5076659;28;19927;-56
2023/06/08 05:18:32;;;;;;;;;;;;;;;18.07;63.92;97876.31;5080194;28;19963;-56
2023/06/08 05:20:59;;;;;;;;;;;;;;;18.20;63.64;97877.75;5079275;28;20007;-56
2023/06/08 05:23:27;;;;;;;;;;;;;;;18.16;63.75;97879.63;5084987;28;19920;-55
2023/06/08 05:25:56;;;;;;;;;;;;;;;18.25;63.12;97869.22;5081072;28;20308;-63
2023/06/08 05:28:24;;;;;;;;;;;;;;;18.33;63.19;97881.16;5087714;28;19924;-57
2023/06/08 05:30:52;;;;;;;;;;;;;;;18.37;63.21;97879.25;5074851;28;20393;-56
2023/06/08 05:33:20;;;;;;;;;;;;;;;18.50;63.01;97875.19;5078888;28;19969;-62
2023/06/08 05:35:48;;;;;;;;;;;;;;;18.40;62.88;97875.00;5089102;28;20427;-57
2023/06/08 05:38:16;;;;;;;;;;;;;;;18.35;62.95;97872.53;5086070;28;19952;-56
2023/06/08 05:40:43;;;;;;;;;;;;;;;18.47;63.05;97880.63;5092432;28;20357;-57
2023/06/08 05:43:12;;;;;;;;;;;;;;;18.56;62.77;97868.25;5092293;28;19942;-56
2023/06/08 05:45:41;;;;;;;;;;;;;;;18.42;62.95;97873.47;5084860;28;19966;-56
2023/06/08 05:48:09;;;;;;;;;;;;;;;18.46;63.13;97873.53;5062838;28;19971;-57
2023/06/08 05:50:36;;;;;;;;;;;;;;;18.51;62.71;97879.53;5060874;28;19921;-56
2023/06/08 05:53:04;;;;;;;;;;;;;;;18.48;63.46;97883.03;5067360;28;19974;-56
2023/06/08 05:55:32;;;;;;;;;;;;;;;18.61;63.10;97883.66;5044713;28;19970;-57
2023/06/08 05:58:00;;;;;;;;;;;;;;;18.63;63.26;97881.31;5073142;28;19920;-56
2023/06/08 06:00:29;;;;;;;;;;;;;;;18.67;62.90;97882.19;5069955;28;20019;-57
2023/06/08 06:02:57;;;;;;;;;;;;;;;18.73;62.69;97879.97;5093034;28;19959;-56
2023/06/08 06:05:27;;;;;;;;;;;;;;;18.87;62.40;97876.69;5097849;28;20386;-56
2023/06/08 06:07:55;;;;;;;;;;;;;;;18.86;62.62;97881.41;5084194;28;19928;-63
2023/06/08 06:10:23;;;;;;;;;;;;;;;18.86;62.48;97870.38;5092624;28;20323;-57
2023/06/08 06:12:51;;;;;;;;;;;;;;;19.11;62.18;97882.59;5084669;28;19927;-58
2023/06/08 06:15:21;;;;;;;;;;;;;;;19.19;61.78;97880.78;5078705;28;19952;-56
2023/06/08 06:17:50;;;;;;;;;;;;;;;19.31;61.55;97885.28;5102729;27;19943;-56
2023/06/08 06:20:19;;;;;;;;;;;;;;;19.44;60.97;97883.09;5088201;28;19920;-62
2023/06/08 06:22:46;;;;;;;;;;;;;;;19.48;60.84;97873.72;5087420;28;20015;-56
2023/06/08 06:25:21;;;;;;;;;;;;;;;19.60;60.57;97881.84;5106369;28;19920;-57
2023/06/08 06:27:49;;;;;;;;;;;;;;;19.70;60.40;97874.88;5088995;28;19920;-56
2023/06/08 06:30:17;;;;;;;;;;;;;;;19.81;60.49;97872.25;5084372;28;19920;-58
2023/06/08 06:32:46;;;;;;;;;;;;;;;19.91;60.19;97876.31;5066359;28;19960;-57
2023/06/08 06:35:15;;;;;;;;;;;;;;;20.01;60.23;97870.94;5067341;28;19942;-58
2023/06/08 06:37:43;;;;;;;;;;;;;;;20.09;59.23;97871.84;5062865;28;20370;-56
2023/06/08 06:40:11;;;;;;;;;;;;;;;20.14;59.04;97877.84;5067152;28;19920;-56
2023/06/08 06:42:39;;;;;;;;;;;;;;;20.10;59.75;97876.19;5069506;28;20321;-56
2023/06/08 06:45:18;;;;;;;;;;;;;;;20.21;59.57;97881.84;5085533;28;19925;-56
2023/06/08 06:47:46;;;;;;;;;;;;;;;20.38;59.73;97876.53;5072422;28;19927;-57
2023/06/08 06:50:15;;;;;;;;;;;;;;;20.52;58.83;97877.91;5078584;28;19924;-56
2023/06/08 06:52:43;;;;;;;;;;;;;;;20.65;58.82;97876.44;5062906;28;19928;-58
2023/06/08 06:55:11;;;;;;;;;;;;;;;20.89;57.75;97884.19;5068817;28;19932;-57
2023/06/08 06:57:40;;;;;;;;;;;;;;;21.00;57.48;97883.50;5063395;28;19932;-57
2023/06/08 07:00:10;;;;;;;;;;;;;;;21.05;58.08;97883.16;5063444;28;19924;-56
2023/06/08 07:02:38;;;;;;;;;;;;;;;21.18;56.65;97884.44;5097452;28;19925;-57
2023/06/08 07:05:07;;;;;;;;;;;;;;;21.03;56.37;97883.53;5062364;28;19956;-57
2023/06/08 07:07:38;;;;;;;;;;;;;;;20.91;57.30;97892.88;5072392;28;19932;-57
2023/06/08 07:10:06;;;;;;;;;;;;;;;21.03;56.76;97878.00;5071314;28;20349;-56
2023/06/08 07:12:35;;;;;;;;;;;;;;;20.80;57.17;97883.72;5077062;28;20304;-58
2023/06/08 07:15:02;;;;;;;;;;;;;;;20.85;56.96;97888.88;5066348;28;19920;-65
2023/06/08 07:17:30;;;;;;;;;;;;;;;20.88;57.41;97888.16;5063070;28;19920;-57
2023/06/08 07:19:58;;;;;;;;;;;;;;;20.92;57.43;97883.44;5073528;28;20361;-58
2023/06/08 07:22:26;;;;;;;;;;;;;;;20.98;57.84;97875.59;5064085;28;20011;-57
2023/06/08 07:25:16;;;;;;;;;;;;;;;21.01;57.41;97876.81;5064757;28;20019;-60
2023/06/08 07:28:06;;;;;;;;;;;;;;;21.16;56.82;97871.03;5070466;28;19925;-58
2023/06/08 07:30:34;;;;;;;;;;;;;;;21.30;57.42;97875.88;5071116;28;19920;-58
2023/06/08 07:33:03;;;;;;;;;;;;;;;21.38;56.52;97871.22;5066299;28;19920;-56
2023/06/08 07:35:31;;;;;;;;;;;;;;;21.53;56.78;97872.13;5068710;28;19963;-57
2023/06/08 07:37:59;;;;;;;;;;;;;;;21.54;56.41;97870.94;5070735;28;19920;-57
2023/06/08 07:40:28;;;;;;;;;;;;;;;21.64;56.70;97878.50;5059790;28;19932;-57
2023/06/08 07:42:56;;;;;;;;;;;;;;;21.70;55.48;97868.66;5065220;28;19968;-68
2023/06/08 07:45:24;;;;;;;;;;;;;;;21.79;55.73;97877.44;5059966;28;20435;-60
2023/06/08 07:47:52;;;;;;;;;;;;;;;21.93;55.14;97877.47;5092898;28;20376;-57
2023/06/08 07:50:21;;;;;;;;;;;;;;;21.91;54.54;97871.56;5091894;28;19963;-58
2023/06/08 07:52:49;;;;;;;;;;;;;;;22.12;53.69;97872.88;5092785;28;19920;-57
2023/06/08 07:55:16;;;;;;;;;;;;;;;21.95;53.68;97871.59;5085735;28;20388;-58
2023/06/08 07:57:45;;;;;;;;;;;;;;;22.17;53.47;97872.50;5083333;28;19920;-60
2023/06/08 08:00:14;;;;;;;;;;;;;;;21.76;54.30;97869.09;5082862;28;19920;-64
2023/06/08 08:02:42;;;;;;;;;;;;;;;21.73;54.58;97869.84;5071901;28;20381;-58
2023/06/08 08:05:10;;;;;;;;;;;;;;;21.69;54.62;97864.31;5069900;28;19924;-60
2023/06/08 08:07:40;;;;;;;;;;;;;;;21.81;54.83;97872.28;5073438;28;19921;-58
2023/06/08 08:10:08;;;;;;;;;;;;;;;21.89;54.36;97867.56;5075542;28;20573;-58
2023/06/08 08:12:37;;;;;;;;;;;;;;;21.91;53.90;97868.78;5069776;28;19929;-58
2023/06/08 08:15:07;;;;;;;;;;;;;;;21.87;53.79;97856.91;5070050;28;19920;-66
2023/06/08 08:17:34;;;;;;;;;;;;;;;22.11;53.71;97866.56;5079777;28;20312;-57
2023/06/08 08:20:03;;;;;;;;;;;;;;;22.14;54.75;97864.97;5089852;28;19921;-57
2023/06/08 08:22:31;;;;;;;;;;;;;;;22.26;53.66;97869.34;5080035;28;20352;-58
2023/06/08 08:24:59;;;;;;;;;;;;;;;22.28;53.60;97865.03;5077035;28;19943;-64
2023/06/08 08:27:27;;;;;;;;;;;;;;;22.43;53.22;97858.38;5098667;28;19927;-57
2023/06/08 08:29:55;;;;;;;;;;;;;;;22.34;53.50;97855.16;5081330;28;20343;-62
2023/06/08 08:32:24;;;;;;;;;;;;;;;22.29;52.89;97852.78;5085903;28;19965;-57
2023/06/08 08:34:52;;;;;;;;;;;;;;;22.12;52.53;97854.31;5083880;28;19920;-57
2023/06/08 08:37:20;;;;;;;;;;;;;;;22.45;51.75;97864.28;5090180;28;19920;-65
2023/06/08 08:39:48;;;;;;;;;;;;;;;22.57;51.22;97857.59;5091746;28;19963;-58
2023/06/08 08:42:23;;;;;;;;;;;;;;;22.80;50.63;97864.75;5091206;28;20465;-57
2023/06/08 08:44:51;;;;;;;;;;;;;;;22.72;50.50;97864.75;5111219;28;20357;-57
2023/06/08 08:47:19;;;;;;;;;;;;;;;22.93;50.25;97858.47;5091147;28;20153;-57
2023/06/08 08:49:51;;;;;;;;;;;;;;;22.56;51.11;97853.25;5095927;28;19920;-58
2023/06/08 08:52:20;;;;;;;;;;;;;;;22.55;50.82;97857.22;5092964;28;19920;-57
2023/06/08 08:54:55;;;;;;;;;;;;;;;22.34;51.21;97866.25;5094097;28;19966;-57
2023/06/08 08:57:23;;;;;;;;;;;;;;;22.23;51.58;97859.88;5080893;28;19920;-58
2023/06/08 08:59:51;;;;;;;;;;;;;;;22.07;52.35;97859.38;5100424;28;19919;-58
2023/06/08 09:02:19;;;;;;;;;;;;;;;22.03;53.23;97855.81;5097523;28;19920;-57
2023/06/08 09:04:47;;;;;;;;;;;;;;;22.16;51.88;97848.78;5094024;28;19951;-57
2023/06/08 09:07:19;;;;;;;;;;;;;;;22.03;52.14;97850.28;5083947;28;20419;-60
2023/06/08 09:10:06;;;;;;;;;;;;;;;22.01;52.84;97847.91;5099815;28;19920;-57
2023/06/08 09:12:38;;;;;;;;;;;;;;;22.14;52.04;97851.13;5097066;28;19924;-57
2023/06/08 09:15:07;;;;;;;;;;;;;;;22.39;51.51;97852.03;5095760;28;20021;-58
2023/06/08 09:17:38;;;;;;;;;;;;;;;22.31;51.44;97842.09;5090123;28;19955;-58
2023/06/08 09:20:08;;;;;;;;;;;;;;;22.47;50.66;97836.22;5092216;28;20266;-62
2023/06/08 09:22:37;;;;;;;;;;;;;;;22.53;50.87;97825.53;5094007;28;19948;-57
2023/06/08 09:25:05;;;;;;;;;;;;;;;22.83;51.18;97827.97;5077975;28;19927;-57
2023/06/08 09:27:33;;;;;;;;;;;;;;;22.74;50.75;97831.13;5113520;27;20349;-57
2023/06/08 09:30:01;;;;;;;;;;;;;;;23.14;50.03;97815.34;5093318;28;19955;-58
2023/06/08 09:32:32;;;;;;;;;;;;;;;23.17;48.95;97811.75;5090531;28;20006;-57
2023/06/08 09:35:03;;;;;;;;;;;;;;;23.05;48.76;97812.19;5100599;28;20317;-57
2023/06/08 09:37:36;;;;;;;;;;;;;;;23.26;48.65;97814.94;5087728;28;19927;-57
2023/06/08 09:40:08;;;;;;;;;;;;;;;23.26;48.17;97820.47;5085894;28;19924;-57
2023/06/08 09:42:41;;;;;;;;;;;;;;;23.49;47.68;97812.53;5092073;28;19936;-58
2023/06/08 09:45:10;;;;;;;;;;;;;;;23.65;46.04;97803.00;5095480;28;19930;-58
2023/06/08 09:47:38;;;;;;;;;;;;;;;23.57;45.75;97796.66;5071752;28;19927;-57
2023/06/08 09:50:07;;;;;;;;;;;;;;;23.81;43.78;97788.69;5109897;27;19930;-59
2023/06/08 09:52:36;;;;;;;;;;;;;;;23.96;43.74;97784.66;5091812;28;19924;-58
2023/06/08 09:55:06;;;;;;;;;;;;;;;24.10;44.43;97795.72;5099271;28;19924;-58
2023/06/08 09:57:35;;;;;;;;;;;;;;;24.11;42.81;97802.03;5097456;28;21585;-57
2023/06/08 10:00:14;;;;;;;;;;;;;;;24.42;42.05;97805.88;5100237;28;19980;-65
2023/06/08 10:02:43;;;;;;;;;;;;;;;24.25;42.49;97800.00;5094999;28;19920;-57
2023/06/08 10:05:12;;;;;;;;;;;;;;;24.22;43.97;97802.78;5092927;28;20303;-58
2023/06/08 10:07:40;;;;;;;;;;;;;;;24.11;43.59;97797.28;5094614;28;19980;-57
2023/06/08 10:10:11;;;;;;;;;;;;;;;24.02;44.25;97811.63;5100452;28;20327;-57
2023/06/08 10:12:40;;;;;;;;;;;;;;;23.97;43.55;97803.72;5092794;28;19924;-57
2023/06/08 10:15:09;;;;;;;;;;;;;;;24.09;43.63;97804.44;5085363;28;19924;-57
2023/06/08 10:17:37;;;;;;;;;;;;;;;24.21;43.97;97802.00;5091545;28;20348;-59
2023/06/08 10:20:06;;;;;;;;;;;;;;;24.20;43.59;97802.41;5093850;28;19930;-57
2023/06/08 10:22:34;;;;;;;;;;;;;;;24.19;43.21;97796.06;5079916;28;19965;-58
2023/06/08 10:25:04;;;;;;;;;;;;;;;24.17;42.58;97794.88;5097610;28;19924;-57
2023/06/08 10:27:38;;;;;;;;;;;;;;;23.99;43.75;97783.88;5092187;28;20257;-58
2023/06/08 10:30:07;;;;;;;;;;;;;;;23.94;43.97;97779.53;5088126;28;19937;-58
2023/06/08 10:32:38;;;;;;;;;;;;;;;23.87;44.17;97776.78;5098098;28;19971;-57
2023/06/08 10:35:07;;;;;;;;;;;;;;;24.05;43.49;97765.59;5091828;28;19920;-57
2023/06/08 10:37:36;;;;;;;;;;;;;;;24.10;43.16;97767.16;5082543;28;20363;-59
2023/06/08 10:40:08;;;;;;;;;;;;;;;24.51;42.61;97770.91;5089730;28;20353;-57
2023/06/08 10:42:36;;;;;;;;;;;;;;;24.46;42.28;97765.78;5091259;28;19927;-57
2023/06/08 10:45:06;;;;;;;;;;;;;;;24.41;42.14;97755.13;5093614;28;19973;-65
2023/06/08 10:47:37;;;;;;;;;;;;;;;24.41;42.57;97765.44;5089730;28;19926;-58
2023/06/08 10:50:09;;;;;;;;;;;;;;;24.46;42.41;97760.25;5079225;28;20246;-57
2023/06/08 10:52:39;;;;;;;;;;;;;;;24.58;41.76;97753.41;5091263;28;19957;-57
2023/06/08 10:55:08;;;;;;;;;;;;;;;24.58;41.35;97752.63;5092186;28;19966;-57
2023/06/08 10:57:40;;;;;;;;;;;;;;;24.90;40.58;97747.59;5088161;28;19924;-57
2023/06/08 11:00:42;;;;;;;;;;;;;;;24.59;41.66;97738.31;5112047;27;19932;-58
2023/06/08 11:03:14;;;;;;;;;;;;;;;24.70;41.84;97739.03;5051084;28;19920;-58
2023/06/08 11:05:43;;;;;;;;;;;;;;;25.00;40.61;97726.47;5074753;28;19931;-56
2023/06/08 11:08:11;;;;;;;;;;;;;;;24.91;41.75;97737.25;5075786;28;20574;-58
2023/06/08 11:10:39;;;;;;;;;;;;;;;24.64;41.45;97728.75;5070402;28;20948;-55
2023/06/08 11:13:08;;;;;;;;;;;;;;;24.69;41.36;97725.53;5062050;28;20424;-56
2023/06/08 11:15:38;;;;;;;;;;;;;;;25.04;39.21;97724.44;5060867;28;20453;-56
2023/06/08 11:18:07;;;;;;;;;;;;;;;24.87;40.39;97717.84;5092048;28;19928;-57
2023/06/08 11:20:37;;;;;;;;;;;;;;;24.87;40.41;97723.38;5070287;28;19936;-56
2023/06/08 11:23:06;;;;;;;;;;;;;;;25.02;40.11;97710.16;5087375;28;19920;-57
2023/06/08 11:25:36;;;;;;;;;;;;;;;25.08;39.69;97711.31;5092555;28;19920;-57
2023/06/08 11:28:07;;;;;;;;;;;;;;;24.95;39.81;97705.47;5091120;28;20278;-57
2023/06/08 11:30:35;;;;;;;;;;;;;;;25.08;39.66;97698.19;5073518;28;19965;-57
2023/06/08 11:33:06;;;;;;;;;;;;;;;25.16;40.12;97703.72;5088449;28;20383;-56
2023/06/08 11:35:34;;;;;;;;;;;;;;;24.97;40.30;97694.72;5072326;28;19931;-56
2023/06/08 11:38:02;;;;;;;;;;;;;;;24.74;40.00;97706.44;5078646;28;19968;-57
2023/06/08 11:40:30;;;;;;;;;;;;;;;24.59;40.29;97698.66;5083730;28;19920;-56
2023/06/08 11:43:00;;;;;;;;;;;;;;;24.55;40.13;97685.59;5096119;28;19924;-56
2023/06/08 11:45:29;;;;;;;;;;;;;;;24.47;41.03;97686.84;5085614;28;20357;-57
2023/06/08 11:47:57;;;;;;;;;;;;;;;24.40;43.66;97691.66;5084095;28;20001;-56
2023/06/08 11:50:50;;;;;;;;;;;;;;;24.43;41.69;97680.50;5079171;28;19920;-57
2023/06/08 11:53:22;;;;;;;;;;;;;;;24.18;41.27;97679.88;5085896;28;19974;-57
2023/06/08 11:55:51;;;;;;;;;;;;;;;24.05;42.12;97676.81;5094391;28;19932;-57
2023/06/08 11:58:25;;;;;;;;;;;;;;;24.05;42.82;97677.59;5091906;28;19950;-58
2023/06/08 12:01:04;;;;;;;;;;;;;;;23.97;43.79;97673.28;5082013;28;19920;-56
2023/06/08 12:03:33;;;;;;;;;;;;;;;23.93;42.96;97666.19;5085305;28;19927;-56
2023/06/08 12:06:05;;;;;;;;;;;;;;;23.89;41.81;97663.41;5081274;28;19920;-56
2023/06/08 12:08:34;;;;;;;;;;;;;;;23.91;43.81;97661.00;5083788;28;19981;-56
2023/06/08 12:11:07;;;;;;;;;;;;;;;23.93;43.89;97668.94;5087501;28;20015;-56
2023/06/08 12:13:34;;;;;;;;;;;;;;;24.09;46.30;97671.22;5081071;28;19920;-56
2023/06/08 12:16:03;;;;;;;;;;;;;;;23.92;44.26;97668.16;5079990;28;19932;-55
2023/06/08 12:18:31;;;;;;;;;;;;;;;23.87;45.43;97671.38;5086199;28;19920;-56
2023/06/08 12:20:59;;;;;;;;;;;;;;;24.17;42.46;97664.41;5103482;27;19923;-56
2023/06/08 12:23:28;;;;;;;;;;;;;;;24.11;42.22;97655.75;5078772;28;19936;-55
2023/06/08 12:25:56;;;;;;;;;;;;;;;24.02;43.25;97647.88;5111977;27;19923;-56
2023/06/08 12:28:25;;;;;;;;;;;;;;;23.99;45.89;97643.13;5087590;28;20026;-56
2023/06/08 12:30:54;;;;;;;;;;;;;;;23.93;48.08;97642.00;5087466;28;19928;-56
2023/06/08 12:33:22;;;;;;;;;;;;;;;23.94;48.20;97646.34;5086797;28;21807;-57
2023/06/08 12:35:51;;;;;;;;;;;;;;;24.01;48.72;97654.63;5093508;28;20388;-60
2023/06/08 12:38:20;;;;;;;;;;;;;;;23.97;48.27;97648.31;5093722;28;19920;-56
2023/06/08 12:40:51;;;;;;;;;;;;;;;24.01;48.25;97643.50;5084186;28;20277;-55
2023/06/08 12:43:19;;;;;;;;;;;;;;;24.09;48.95;97649.03;5090015;28;19927;-57
2023/06/08 12:45:47;;;;;;;;;;;;;;;24.18;49.23;97644.59;5076328;28;19924;-56
2023/06/08 12:48:14;;;;;;;;;;;;;;;24.01;46.76;97642.72;5072367;28;20059;-56
2023/06/08 12:50:42;;;;;;;;;;;;;;;24.10;45.92;97639.50;5062928;28;19932;-56
2023/06/08 12:53:10;;;;;;;;;;;;;;;24.06;47.37;97639.53;5072367;28;19936;-57
2023/06/08 12:55:38;;;;;;;;;;;;;;;24.02;47.39;97636.78;5068906;28;19925;-56
2023/06/08 12:58:08;;;;;;;;;;;;;;;23.94;47.56;97638.03;5058231;28;19921;-56
2023/06/08 13:00:36;;;;;;;;;;;;;;;23.85;48.90;97639.66;5040241;28;19940;-57
2023/06/08 13:03:03;;;;;;;;;;;;;;;23.70;49.22;97639.78;5067760;28;19921;-57
2023/06/08 13:05:31;;;;;;;;;;;;;;;23.63;49.03;97637.00;5063380;28;20290;-57
2023/06/08 13:08:05;;;;;;;;;;;;;;;23.49;48.68;97646.19;5067679;28;19921;-56
2023/06/08 13:10:33;;;;;;;;;;;;;;;23.55;48.35;97649.31;5071131;28;20198;-56
2023/06/08 13:13:02;;;;;;;;;;;;;;;23.41;48.64;97646.59;5071294;28;19954;-56
2023/06/08 13:15:31;;;;;;;;;;;;;;;23.38;48.48;97661.25;5064219;28;19920;-62
2023/06/08 13:17:59;;;;;;;;;;;;;;;22.93;65.22;97670.09;5069922;28;20361;-56
2023/06/08 13:20:27;;;;;;;;;;;;;;;22.61;66.87;97670.13;5066157;28;19928;-58
2023/06/08 13:22:55;;;;;;;;;;;;;;;21.70;67.70;97691.72;5065258;28;20263;-56
2023/06/08 13:25:23;;;;;;;;;;;;;;;21.22;67.39;97688.34;5067641;28;19924;-59
2023/06/08 13:27:53;;;;;;;;;;;;;;;21.00;67.17;97709.53;5069079;28;19927;-58
2023/06/08 13:30:22;;;;;;;;;;;;;;;20.84;68.90;97723.59;5059254;28;19920;-56
2023/06/08 13:32:51;;;;;;;;;;;;;;;20.61;65.82;97745.88;5068144;28;19981;-56
2023/06/08 13:35:18;;;;;;;;;;;;;;;20.47;68.00;97743.03;5066589;28;20266;-58
2023/06/08 13:37:47;;;;;;;;;;;;;;;19.48;75.06;97777.28;5062881;28;19981;-59
2023/06/08 13:40:15;;;;;;;;;;;;;;;18.98;74.36;97745.50;5063473;28;19924;-58
2023/06/08 13:42:43;;;;;;;;;;;;;;;18.95;76.36;97757.25;5063153;28;20336;-58
2023/06/08 13:45:11;;;;;;;;;;;;;;;19.06;77.91;97769.22;5068256;28;20308;-58
2023/06/08 13:47:40;;;;;;;;;;;;;;;19.13;79.72;97779.56;5073859;28;20289;-59
2023/06/08 13:50:10;;;;;;;;;;;;;;;18.88;83.23;97790.19;5074236;28;19947;-61
2023/06/08 13:52:39;;;;;;;;;;;;;;;18.91;83.85;97808.69;5076989;28;20366;-57
2023/06/08 13:55:07;;;;;;;;;;;;;;;18.96;82.12;97805.63;5073383;28;20311;-57
2023/06/08 13:57:35;;;;;;;;;;;;;;;18.94;82.09;97808.75;5071576;28;19948;-57
2023/06/08 14:00:05;;;;;;;;;;;;;;;18.76;83.33;97804.94;5070333;28;19955;-64
2023/06/08 14:02:39;;;;;;;;;;;;;;;18.75;84.19;97812.41;5059703;28;19963;-57
2023/06/08 14:05:11;;;;;;;;;;;;;;;18.82;84.14;97809.75;5063179;28;19972;-57
2023/06/08 14:07:39;;;;;;;;;;;;;;;18.73;83.98;97795.44;5076643;28;19931;-58
2023/06/08 14:10:11;;;;;;;;;;;;;;;18.70;81.90;97789.91;5081603;28;19924;-57
2023/06/08 14:12:40;;;;;;;;;;;;;;;18.74;83.13;97782.47;5068111;28;19940;-58
2023/06/08 14:15:08;;;;;;;;;;;;;;;18.70;81.37;97781.66;5058022;28;19927;-57
2023/06/08 14:17:36;;;;;;;;;;;;;;;18.77;82.71;97777.03;5076200;28;19920;-57
2023/06/08 14:20:04;;;;;;;;;;;;;;;18.76;81.47;97767.19;5082892;28;19928;-60
2023/06/08 14:22:34;;;;;;;;;;;;;;;18.89;81.11;97778.00;5055182;28;20282;-58
2023/06/08 14:25:02;;;;;;;;;;;;;;;18.94;82.05;97783.19;5068873;28;19956;-58
2023/06/08 14:27:30;;;;;;;;;;;;;;;19.08;83.68;97794.44;5062420;28;20019;-58
2023/06/08 14:29:59;;;;;;;;;;;;;;;19.11;84.31;97802.72;5064172;28;20003;-58
2023/06/08 14:32:27;;;;;;;;;;;;;;;19.17;84.80;97808.72;5098488;28;19978;-58
2023/06/08 14:34:55;;;;;;;;;;;;;;;19.21;84.66;97819.81;5083701;28;19928;-65
2023/06/08 14:37:23;;;;;;;;;;;;;;;19.22;83.66;97819.41;5084107;28;20365;-60
2023/06/08 14:39:53;;;;;;;;;;;;;;;19.00;81.87;97829.31;5081135;28;19920;-58
2023/06/08 14:42:21;;;;;;;;;;;;;;;18.87;81.89;97832.63;5085661;28;19920;-58
2023/06/08 14:44:51;;;;;;;;;;;;;;;18.69;81.30;97827.59;5083473;28;19970;-58
2023/06/08 14:47:22;;;;;;;;;;;;;;;18.86;81.75;97842.84;5082818;28;19973;-57
2023/06/08 14:49:50;;;;;;;;;;;;;;;18.82;82.09;97842.78;5084974;28;19932;-59
2023/06/08 14:52:18;;;;;;;;;;;;;;;18.80;82.31;97845.13;5078311;28;19932;-58
2023/06/08 14:54:46;;;;;;;;;;;;;;;18.62;81.17;97846.72;5085228;28;19934;-58
2023/06/08 14:57:15;;;;;;;;;;;;;;;18.48;81.48;97840.94;5070548;28;19976;-58
2023/06/08 14:59:43;;;;;;;;;;;;;;;18.36;82.43;97828.16;5085093;28;19933;-59
2023/06/08 15:02:11;;;;;;;;;;;;;;;18.19;81.35;97823.91;5078672;28;20377;-59
2023/06/08 15:04:39;;;;;;;;;;;;;;;18.15;82.37;97820.28;5081835;28;19931;-58
2023/06/08 15:07:10;;;;;;;;;;;;;;;18.12;83.31;97809.25;5092798;28;19924;-59
2023/06/08 15:09:37;;;;;;;;;;;;;;;18.16;83.51;97810.88;5081503;28;19920;-58
2023/06/08 15:12:06;;;;;;;;;;;;;;;18.23;83.33;97827.53;5079235;28;19924;-58
2023/06/08 15:14:35;;;;;;;;;;;;;;;18.10;82.49;97836.28;5080272;28;19925;-60
2023/06/08 15:17:03;;;;;;;;;;;;;;;18.21;82.94;97851.84;5058582;28;19933;-58
2023/06/08 15:19:33;;;;;;;;;;;;;;;18.13;82.49;97860.31;5109813;27;19921;-57
2023/06/08 15:22:01;;;;;;;;;;;;;;;18.23;83.52;97862.50;5075027;28;20013;-58
2023/06/08 15:24:28;;;;;;;;;;;;;;;18.25;82.36;97849.97;5073289;28;20011;-57
2023/06/08 15:26:56;;;;;;;;;;;;;;;18.14;81.39;97846.19;5095798;28;19929;-59
2023/06/08 15:29:24;;;;;;;;;;;;;;;18.11;82.30;97857.94;5085501;28;20018;-66
2023/06/08 15:31:54;;;;;;;;;;;;;;;18.27;82.88;97855.91;5082278;28;20374;-58
2023/06/08 15:34:21;;;;;;;;;;;;;;;18.38;82.71;97841.56;5083901;28;19939;-58
2023/06/08 15:36:49;;;;;;;;;;;;;;;18.27;82.50;97839.41;5078414;28;19934;-61
2023/06/08 15:39:17;;;;;;;;;;;;;;;18.15;82.01;97836.00;5070865;28;20354;-59
2023/06/08 15:41:47;;;;;;;;;;;;;;;18.21;81.88;97834.53;5087435;28;19932;-58
2023/06/08 15:44:15;;;;;;;;;;;;;;;17.93;80.61;97821.81;5075868;28;19982;-59
2023/06/08 15:46:43;;;;;;;;;;;;;;;18.03;81.37;97815.75;5080564;28;20297;-59
2023/06/08 15:49:12;;;;;;;;;;;;;;;18.14;81.58;97810.47;5081853;28;19928;-58
2023/06/08 15:51:41;;;;;;;;;;;;;;;18.23;81.51;97788.25;5099376;28;19972;-58
2023/06/08 15:54:09;;;;;;;;;;;;;;;18.28;81.74;97783.25;5079334;28;19921;-58
2023/06/08 15:56:37;;;;;;;;;;;;;;;18.22;80.86;97773.72;5097689;28;19958;-59
2023/06/08 15:59:05;;;;;;;;;;;;;;;18.12;81.40;97763.31;5096303;28;19928;-59
2023/06/08 16:01:33;;;;;;;;;;;;;;;18.06;82.18;97745.53;5084936;28;19927;-58
2023/06/08 16:04:02;;;;;;;;;;;;;;;17.95;82.63;97733.50;5094540;28;19920;-59
2023/06/08 16:06:31;;;;;;;;;;;;;;;17.95;83.49;97706.84;5095420;28;19951;-58
2023/06/08 16:08:59;;;;;;;;;;;;;;;17.99;83.48;97690.41;5104659;28;19952;-59
2023/06/08 16:11:28;;;;;;;;;;;;;;;17.96;83.70;97663.66;5091217;28;19919;-58
2023/06/08 16:13:56;;;;;;;;;;;;;;;18.05;83.29;97655.94;5106288;28;19924;-59
2023/06/08 16:16:25;;;;;;;;;;;;;;;18.07;83.43;97642.66;5092031;28;19924;-58
2023/06/08 16:18:53;;;;;;;;;;;;;;;18.12;82.89;97641.53;5095296;28;20361;-58
2023/06/08 16:21:22;;;;;;;;;;;;;;;18.21;81.64;97637.38;5102452;28;19941;-58
2023/06/08 16:23:53;;;;;;;;;;;;;;;18.29;80.75;97646.53;5097718;28;19920;-66
2023/06/08 16:26:21;;;;;;;;;;;;;;;18.34;79.95;97646.22;5094545;28;19919;-58
2023/06/08 16:28:49;;;;;;;;;;;;;;;18.42;78.04;97649.88;5104994;28;19920;-61
2023/06/08 16:31:17;;;;;;;;;;;;;;;18.51;78.37;97651.22;5097104;28;20023;-59
2023/06/08 16:33:46;;;;;;;;;;;;;;;18.52;75.85;97652.78;5090454;28;19924;-58
2023/06/08 16:36:14;;;;;;;;;;;;;;;18.52;76.23;97657.50;5099210;28;19970;-60
2023/06/08 16:38:44;;;;;;;;;;;;;;;18.52;75.81;97652.00;5096021;28;20020;-58
2023/06/08 16:41:14;;;;;;;;;;;;;;;18.54;76.65;97655.19;5089958;28;19920;-59
2023/06/08 16:43:43;;;;;;;;;;;;;;;18.73;78.41;97652.34;5089829;28;19920;-59
2023/06/08 16:46:11;;;;;;;;;;;;;;;18.74;78.55;97648.41;5080119;28;19954;-60
2023/06/08 16:48:39;;;;;;;;;;;;;;;18.80;77.06;97638.69;5090464;28;19955;-59
2023/06/08 16:51:09;;;;;;;;;;;;;;;18.94;77.05;97642.81;5089578;28;19924;-58
2023/06/08 16:53:36;;;;;;;;;;;;;;;18.90;77.80;97644.72;5088098;28;19924;-59
2023/06/08 16:56:04;;;;;;;;;;;;;;;19.01;77.26;97642.88;5099277;28;20337;-58
2023/06/08 16:58:34;;;;;;;;;;;;;;;18.96;76.52;97644.03;5096097;28;19919;-60
2023/06/08 17:01:02;;;;;;;;;;;;;;;19.04;77.06;97633.91;5084821;28;19920;-58
2023/06/08 17:03:30;;;;;;;;;;;;;;;18.98;76.90;97643.66;5086711;28;19920;-58